Geddes, New York
Current Conditions -  °F | °C
As of 12:54 AM on Tuesday 21 Oct 2014 (Local Time) from KSYR Reporting Station
Light Rain Light Rain  
Wind Chill: 50°   Ceiling: 4000
Heat Index: 50°   Visibility: 9mi
Dew Point: 46°   Wind: 7mph
Humidity: 86%   Direction: 150°SSE
Pressure: 29.87"   Gusts: NA
Location:  43.0845°N, 76.247°W
Report Text: KSYR 210454Z 15006KT 9SM -RA BKN040 OVC060 10/08 A2987 RMK SLP112 T01000077 401390044
Loading
Personal Weather Stations






























Interactive Weather Map
Tropical Storm Tracking
New forecast layout! Learn more

10-Day Weather Forecast

Advertisements
Track Severe Weather on mobile